SBOSBO GND / TGPY
Speedbird OnlineSpeedbird Online GND / TGPY

Point Salines International Airport
04:09 26.5°C

Location Point Salines, Grenada
Latitude: 12.004199981689453
Longitude: -61.78620147705078
Web Airport Website | Wikipedia
Altitude 12 Meter / 41 Feet
Distance 7,038 KM / 4,373 Miles
from London.
Time Zone UTC -4 hours (America/Grenada)
Codes IATA: GND
ICAO: TGPY
Currency £1 equals XCD 3.06
Runways
RunwayLength (m)Surface
102744Asphalt
282744Asphalt
Radio
TypeDescriptionFrequency
APPAPP119.4
GNDGND121.9
TWRTWR118.9
Live ATC
METAR TGPY 060700Z 11020KT 8000 -RA SCT017 BKN038 24/23 Q1010 TEMPO RA
TAF TGPY 060400Z 0606/0706 13018G30KT 9999 FEW012CB BKN016 PROB40 0612/0614 4000 SHRA SCT010CB BKN015
Weather As Of 06 Oct 2022 04:09
Description Overcast clouds
Wind 27 km/h from East (98°)
Cloud Cover 100%
Precipitation Rain: none, Snow: none
Sunrise 05:56
Sunset 17:54
Lounges IAM Jet Centre, Jet Centre Terminal
Rotations During the last 90 days there were
22 flights from UVF
15 flights to UVF


© 2017-2022 Speedbird Online